sensor_id;sensor_type;location;lat;lon;timestamp;P1;durP1;ratioP1;P2;durP2;ratioP2
12597;SDS011;6364;53.590;9.956;2024-03-23T00:53:06;44.78;;;5.82;;
12597;SDS011;6364;53.590;9.956;2024-03-23T00:55:32;54.80;;;6.18;;
12597;SDS011;6364;53.590;9.956;2024-03-23T00:57:57;39.15;;;6.15;;
12597;SDS011;6364;53.590;9.956;2024-03-23T01:00:22;42.97;;;6.43;;
12597;SDS011;6364;53.590;9.956;2024-03-23T01:02:48;47.60;;;5.85;;
12597;SDS011;6364;53.590;9.956;2024-03-23T01:05:13;39.10;;;5.70;;
12597;SDS011;6364;53.590;9.956;2024-03-23T01:07:39;41.85;;;6.82;;
12597;SDS011;6364;53.590;9.956;2024-03-23T01:10:04;49.22;;;5.88;;
12597;SDS011;6364;53.590;9.956;2024-03-23T01:12:30;47.78;;;6.53;;
12597;SDS011;6364;53.590;9.956;2024-03-23T01:14:55;60.92;;;6.35;;
12597;SDS011;6364;53.590;9.956;2024-03-23T01:17:21;35.85;;;5.20;;
12597;SDS011;6364;53.590;9.956;2024-03-23T01:19:46;42.63;;;5.85;;
12597;SDS011;6364;53.590;9.956;2024-03-23T01:22:11;43.03;;;6.05;;
12597;SDS011;6364;53.590;9.956;2024-03-23T01:24:37;45.17;;;6.35;;
12597;SDS011;6364;53.590;9.956;2024-03-23T01:27:02;49.60;;;6.10;;
12597;SDS011;6364;53.590;9.956;2024-03-23T01:29:29;37.83;;;6.43;;
12597;SDS011;6364;53.590;9.956;2024-03-23T01:31:54;34.90;;;5.00;;
12597;SDS011;6364;53.590;9.956;2024-03-23T01:34:20;37.53;;;5.72;;
12597;SDS011;6364;53.590;9.956;2024-03-23T01:36:46;45.17;;;6.28;;
12597;SDS011;6364;53.590;9.956;2024-03-23T01:39:11;42.92;;;5.97;;
12597;SDS011;6364;53.590;9.956;2024-03-23T01:41:37;40.53;;;5.95;;
12597;SDS011;6364;53.590;9.956;2024-03-23T01:44:07;45.35;;;6.10;;
12597;SDS011;6364;53.590;9.956;2024-03-23T01:46:33;49.47;;;6.32;;
12597;SDS011;6364;53.590;9.956;2024-03-23T01:48:58;43.13;;;5.88;;
12597;SDS011;6364;53.590;9.956;2024-03-23T01:51:24;45.70;;;5.93;;
12597;SDS011;6364;53.590;9.956;2024-03-23T01:53:49;40.42;;;6.00;;
12597;SDS011;6364;53.590;9.956;2024-03-23T01:56:15;34.75;;;6.05;;
12597;SDS011;6364;53.590;9.956;2024-03-23T01:58:41;43.53;;;5.93;;
12597;SDS011;6364;53.590;9.956;2024-03-23T02:01:06;41.13;;;6.30;;
12597;SDS011;6364;53.590;9.956;2024-03-23T02:03:31;42.45;;;6.75;;
12597;SDS011;6364;53.590;9.956;2024-03-23T02:05:57;42.20;;;6.80;;
12597;SDS011;6364;53.590;9.956;2024-03-23T02:08:22;40.58;;;5.70;;
12597;SDS011;6364;53.590;9.956;2024-03-23T02:10:49;34.70;;;6.07;;
12597;SDS011;6364;53.590;9.956;2024-03-23T02:13:15;47.03;;;7.15;;
12597;SDS011;6364;53.590;9.956;2024-03-23T02:15:41;34.45;;;5.82;;
12597;SDS011;6364;53.590;9.956;2024-03-23T02:18:07;56.15;;;7.97;;
12597;SDS011;6364;53.590;9.956;2024-03-23T02:20:33;35.97;;;5.88;;
12597;SDS011;6364;53.590;9.956;2024-03-23T02:22:59;43.72;;;6.38;;
12597;SDS011;6364;53.590;9.956;2024-03-23T02:25:25;44.70;;;6.68;;
12597;SDS011;6364;53.590;9.956;2024-03-23T02:27:50;34.35;;;6.63;;
12597;SDS011;6364;53.590;9.956;2024-03-23T02:30:15;66.28;;;8.38;;
12597;SDS011;6364;53.590;9.956;2024-03-23T02:32:41;34.90;;;6.47;;
12597;SDS011;6364;53.590;9.956;2024-03-23T02:35:06;52.42;;;7.10;;
12597;SDS011;6364;53.590;9.956;2024-03-23T02:37:32;47.47;;;6.57;;
12597;SDS011;6364;53.590;9.956;2024-03-23T02:39:57;42.10;;;7.07;;
12597;SDS011;6364;53.590;9.956;2024-03-23T02:42:23;45.13;;;6.13;;
12597;SDS011;6364;53.590;9.956;2024-03-23T02:44:48;45.92;;;6.35;;
12597;SDS011;6364;53.590;9.956;2024-03-23T02:47:14;42.08;;;6.35;;
12597;SDS011;6364;53.590;9.956;2024-03-23T02:49:39;41.38;;;6.25;;
12597;SDS011;6364;53.590;9.956;2024-03-23T02:52:04;39.95;;;5.78;;
12597;SDS011;6364;53.590;9.956;2024-03-23T02:54:30;44.05;;;6.72;;
12597;SDS011;6364;53.590;9.956;2024-03-23T02:56:56;38.10;;;5.95;;
12597;SDS011;6364;53.590;9.956;2024-03-23T02:59:21;40.95;;;6.53;;
12597;SDS011;6364;53.590;9.956;2024-03-23T03:01:46;41.60;;;5.55;;
12597;SDS011;6364;53.590;9.956;2024-03-23T03:04:12;49.15;;;5.88;;
12597;SDS011;6364;53.590;9.956;2024-03-23T03:06:37;42.17;;;5.57;;
12597;SDS011;6364;53.590;9.956;2024-03-23T03:09:03;42.08;;;6.32;;
12597;SDS011;6364;53.590;9.956;2024-03-23T03:11:28;36.83;;;6.13;;
12597;SDS011;6364;53.590;9.956;2024-03-23T03:13:53;47.22;;;6.55;;
12597;SDS011;6364;53.590;9.956;2024-03-23T03:16:19;55.65;;;6.00;;
12597;SDS011;6364;53.590;9.956;2024-03-23T03:18:44;43.83;;;6.75;;
12597;SDS011;6364;53.590;9.956;2024-03-23T03:21:11;52.20;;;7.40;;
12597;SDS011;6364;53.590;9.956;2024-03-23T03:23:37;35.03;;;5.50;;
12597;SDS011;6364;53.590;9.956;2024-03-23T03:26:03;38.95;;;5.70;;
12597;SDS011;6364;53.590;9.956;2024-03-23T03:28:29;55.50;;;8.18;;
12597;SDS011;6364;53.590;9.956;2024-03-23T03:30:56;48.78;;;6.00;;
12597;SDS011;6364;53.590;9.956;2024-03-23T03:33:22;36.97;;;5.90;;
12597;SDS011;6364;53.590;9.956;2024-03-23T03:35:47;47.33;;;7.07;;
12597;SDS011;6364;53.590;9.956;2024-03-23T03:38:12;40.45;;;6.03;;
12597;SDS011;6364;53.590;9.956;2024-03-23T03:40:38;41.28;;;6.47;;
12597;SDS011;6364;53.590;9.956;2024-03-23T03:43:03;33.67;;;5.63;;
12597;SDS011;6364;53.590;9.956;2024-03-23T03:45:28;37.05;;;5.35;;
12597;SDS011;6364;53.590;9.956;2024-03-23T03:47:54;45.28;;;6.05;;
12597;SDS011;6364;53.590;9.956;2024-03-23T03:50:19;39.58;;;5.88;;
12597;SDS011;6364;53.590;9.956;2024-03-23T03:52:46;47.63;;;6.35;;
12597;SDS011;6364;53.590;9.956;2024-03-23T03:55:13;48.33;;;6.03;;
12597;SDS011;6364;53.590;9.956;2024-03-23T03:57:39;47.40;;;5.82;;
12597;SDS011;6364;53.590;9.956;2024-03-23T04:00:05;44.25;;;6.05;;
12597;SDS011;6364;53.590;9.956;2024-03-23T04:02:31;48.08;;;6.93;;
12597;SDS011;6364;53.590;9.956;2024-03-23T04:04:56;39.47;;;6.25;;
12597;SDS011;6364;53.590;9.956;2024-03-23T04:07:22;44.03;;;6.53;;
12597;SDS011;6364;53.590;9.956;2024-03-23T04:09:48;40.00;;;6.43;;
12597;SDS011;6364;53.590;9.956;2024-03-23T04:12:14;52.75;;;7.22;;
12597;SDS011;6364;53.590;9.956;2024-03-23T04:14:40;41.03;;;6.22;;
12597;SDS011;6364;53.590;9.956;2024-03-23T04:17:05;38.85;;;6.97;;
12597;SDS011;6364;53.590;9.956;2024-03-23T04:19:31;37.13;;;5.82;;
12597;SDS011;6364;53.590;9.956;2024-03-23T04:21:57;49.65;;;5.68;;
12597;SDS011;6364;53.590;9.956;2024-03-23T04:24:22;43.42;;;6.60;;
12597;SDS011;6364;53.590;9.956;2024-03-23T04:26:48;44.72;;;5.82;;
12597;SDS011;6364;53.590;9.956;2024-03-23T04:29:13;49.28;;;6.55;;
12597;SDS011;6364;53.590;9.956;2024-03-23T04:31:38;41.95;;;7.43;;
12597;SDS011;6364;53.590;9.956;2024-03-23T04:34:04;41.15;;;5.82;;
12597;SDS011;6364;53.590;9.956;2024-03-23T04:36:29;41.33;;;7.50;;
12597;SDS011;6364;53.590;9.956;2024-03-23T04:38:56;49.22;;;6.68;;
12597;SDS011;6364;53.590;9.956;2024-03-23T04:41:21;39.53;;;6.28;;
12597;SDS011;6364;53.590;9.956;2024-03-23T04:43:47;35.85;;;6.40;;
12597;SDS011;6364;53.590;9.956;2024-03-23T04:46:12;35.70;;;6.35;;
12597;SDS011;6364;53.590;9.956;2024-03-23T04:48:38;51.20;;;7.18;;
12597;SDS011;6364;53.590;9.956;2024-03-23T04:51:03;45.00;;;6.28;;
12597;SDS011;6364;53.590;9.956;2024-03-23T04:53:29;36.13;;;6.07;;
12597;SDS011;6364;53.590;9.956;2024-03-23T04:55:55;34.25;;;5.45;;
12597;SDS011;6364;53.590;9.956;2024-03-23T04:58:21;39.47;;;6.05;;
12597;SDS011;6364;53.590;9.956;2024-03-23T05:00:56;46.40;;;5.97;;
12597;SDS011;6364;53.590;9.956;2024-03-23T05:03:22;36.00;;;5.90;;
12597;SDS011;6364;53.590;9.956;2024-03-23T05:05:48;37.47;;;5.60;;
12597;SDS011;6364;53.590;9.956;2024-03-23T05:08:14;38.75;;;6.40;;
12597;SDS011;6364;53.590;9.956;2024-03-23T05:10:41;30.40;;;5.32;;
12597;SDS011;6364;53.590;9.956;2024-03-23T05:13:07;40.65;;;6.28;;
12597;SDS011;6364;53.590;9.956;2024-03-23T05:15:32;37.35;;;5.68;;
12597;SDS011;6364;53.590;9.956;2024-03-23T05:17:58;36.53;;;5.63;;
12597;SDS011;6364;53.590;9.956;2024-03-23T05:20:23;32.20;;;5.03;;
12597;SDS011;6364;53.590;9.956;2024-03-23T05:22:49;42.58;;;5.68;;
12597;SDS011;6364;53.590;9.956;2024-03-23T05:25:14;38.45;;;6.20;;
12597;SDS011;6364;53.590;9.956;2024-03-23T05:27:41;40.20;;;5.40;;
12597;SDS011;6364;53.590;9.956;2024-03-23T05:30:06;35.20;;;5.75;;
12597;SDS011;6364;53.590;9.956;2024-03-23T05:32:33;41.50;;;5.60;;
12597;SDS011;6364;53.590;9.956;2024-03-23T05:34:59;34.08;;;5.40;;
12597;SDS011;6364;53.590;9.956;2024-03-23T05:37:24;44.63;;;5.75;;
12597;SDS011;6364;53.590;9.956;2024-03-23T05:39:50;30.17;;;5.40;;
12597;SDS011;6364;53.590;9.956;2024-03-23T05:42:16;41.13;;;5.22;;
12597;SDS011;6364;53.590;9.956;2024-03-23T05:44:45;41.92;;;5.95;;
12597;SDS011;6364;53.590;9.956;2024-03-23T05:47:11;41.45;;;6.60;;
12597;SDS011;6364;53.590;9.956;2024-03-23T05:49:41;37.70;;;6.43;;
12597;SDS011;6364;53.590;9.956;2024-03-23T05:52:07;36.25;;;5.80;;
12597;SDS011;6364;53.590;9.956;2024-03-23T05:54:33;36.00;;;5.75;;
12597;SDS011;6364;53.590;9.956;2024-03-23T05:56:59;38.80;;;6.22;;
12597;SDS011;6364;53.590;9.956;2024-03-23T05:59:24;42.28;;;6.28;;
12597;SDS011;6364;53.590;9.956;2024-03-23T06:01:50;35.10;;;5.38;;
12597;SDS011;6364;53.590;9.956;2024-03-23T06:04:15;38.13;;;6.82;;
12597;SDS011;6364;53.590;9.956;2024-03-23T06:06:41;33.45;;;5.70;;
12597;SDS011;6364;53.590;9.956;2024-03-23T06:09:06;37.17;;;5.70;;
12597;SDS011;6364;53.590;9.956;2024-03-23T06:11:31;38.60;;;6.22;;
12597;SDS011;6364;53.590;9.956;2024-03-23T06:13:57;34.72;;;6.38;;
12597;SDS011;6364;53.590;9.956;2024-03-23T06:16:22;33.70;;;6.25;;
12597;SDS011;6364;53.590;9.956;2024-03-23T06:18:52;36.45;;;6.63;;
12597;SDS011;6364;53.590;9.956;2024-03-23T06:21:17;38.63;;;5.93;;
12597;SDS011;6364;53.590;9.956;2024-03-23T06:23:43;39.50;;;6.32;;
12597;SDS011;6364;53.590;9.956;2024-03-23T06:26:13;35.30;;;5.15;;
12597;SDS011;6364;53.590;9.956;2024-03-23T06:28:38;32.90;;;5.35;;
12597;SDS011;6364;53.590;9.956;2024-03-23T06:31:08;38.88;;;6.70;;
12597;SDS011;6364;53.590;9.956;2024-03-23T06:33:34;35.38;;;5.93;;
12597;SDS011;6364;53.590;9.956;2024-03-23T06:35:59;41.33;;;5.82;;
12597;SDS011;6364;53.590;9.956;2024-03-23T06:38:25;33.55;;;6.18;;
12597;SDS011;6364;53.590;9.956;2024-03-23T06:40:50;31.42;;;5.38;;
12597;SDS011;6364;53.590;9.956;2024-03-23T06:43:17;34.08;;;5.47;;
12597;SDS011;6364;53.590;9.956;2024-03-23T06:45:43;29.27;;;5.13;;
12597;SDS011;6364;53.590;9.956;2024-03-23T06:48:09;30.10;;;4.97;;
12597;SDS011;6364;53.590;9.956;2024-03-23T06:50:34;30.33;;;4.65;;
12597;SDS011;6364;53.590;9.956;2024-03-23T06:52:59;38.78;;;5.07;;
12597;SDS011;6364;53.590;9.956;2024-03-23T06:55:27;27.60;;;5.03;;
12597;SDS011;6364;53.590;9.956;2024-03-23T06:57:55;42.75;;;5.57;;
12597;SDS011;6364;53.590;9.956;2024-03-23T07:00:20;34.80;;;5.60;;
12597;SDS011;6364;53.590;9.956;2024-03-23T07:02:45;33.03;;;4.93;;
12597;SDS011;6364;53.590;9.956;2024-03-23T07:05:11;24.85;;;4.85;;
12597;SDS011;6364;53.590;9.956;2024-03-23T07:07:37;32.75;;;5.63;;
12597;SDS011;6364;53.590;9.956;2024-03-23T07:10:04;30.13;;;5.13;;
12597;SDS011;6364;53.590;9.956;2024-03-23T07:12:30;37.47;;;5.38;;
12597;SDS011;6364;53.590;9.956;2024-03-23T07:14:55;35.72;;;5.78;;
12597;SDS011;6364;53.590;9.956;2024-03-23T07:17:21;23.45;;;4.60;;
12597;SDS011;6364;53.590;9.956;2024-03-23T07:19:46;37.17;;;6.25;;
12597;SDS011;6364;53.590;9.956;2024-03-23T07:22:11;27.25;;;4.85;;
12597;SDS011;6364;53.590;9.956;2024-03-23T07:24:37;36.63;;;5.90;;
12597;SDS011;6364;53.590;9.956;2024-03-23T07:27:04;25.00;;;5.30;;
12597;SDS011;6364;53.590;9.956;2024-03-23T07:29:29;39.78;;;5.63;;
12597;SDS011;6364;53.590;9.956;2024-03-23T07:31:55;40.53;;;6.10;;
12597;SDS011;6364;53.590;9.956;2024-03-23T07:34:20;34.03;;;5.68;;
12597;SDS011;6364;53.590;9.956;2024-03-23T07:36:46;33.60;;;6.07;;
12597;SDS011;6364;53.590;9.956;2024-03-23T07:39:11;34.30;;;4.72;;
12597;SDS011;6364;53.590;9.956;2024-03-23T07:41:37;26.08;;;4.72;;
12597;SDS011;6364;53.590;9.956;2024-03-23T07:44:02;34.30;;;5.07;;
12597;SDS011;6364;53.590;9.956;2024-03-23T07:46:27;34.83;;;5.78;;
12597;SDS011;6364;53.590;9.956;2024-03-23T07:48:53;32.20;;;6.03;;
12597;SDS011;6364;53.590;9.956;2024-03-23T07:51:20;32.17;;;4.85;;
12597;SDS011;6364;53.590;9.956;2024-03-23T07:53:46;22.20;;;4.57;;
12597;SDS011;6364;53.590;9.956;2024-03-23T07:56:13;30.63;;;6.00;;
12597;SDS011;6364;53.590;9.956;2024-03-23T07:58:46;28.23;;;5.72;;
12597;SDS011;6364;53.590;9.956;2024-03-23T08:01:13;23.33;;;5.30;;
12597;SDS011;6364;53.590;9.956;2024-03-23T08:03:40;25.45;;;5.13;;
12597;SDS011;6364;53.590;9.956;2024-03-23T08:08:35;22.33;;;4.47;;
12597;SDS011;6364;53.590;9.956;2024-03-23T08:11:00;35.33;;;5.28;;
12597;SDS011;6364;53.590;9.956;2024-03-23T08:13:26;24.02;;;4.63;;
12597;SDS011;6364;53.590;9.956;2024-03-23T08:15:52;25.50;;;4.88;;
12597;SDS011;6364;53.590;9.956;2024-03-23T08:18:21;22.58;;;4.75;;
12597;SDS011;6364;53.590;9.956;2024-03-23T08:20:46;23.42;;;4.22;;
12597;SDS011;6364;53.590;9.956;2024-03-23T08:23:12;27.63;;;4.18;;
12597;SDS011;6364;53.590;9.956;2024-03-23T08:25:37;29.73;;;5.07;;
12597;SDS011;6364;53.590;9.956;2024-03-23T08:28:02;28.60;;;5.18;;
12597;SDS011;6364;53.590;9.956;2024-03-23T08:30:28;20.52;;;4.80;;
12597;SDS011;6364;53.590;9.956;2024-03-23T08:32:54;24.25;;;4.05;;
12597;SDS011;6364;53.590;9.956;2024-03-23T08:35:19;27.73;;;4.50;;
12597;SDS011;6364;53.590;9.956;2024-03-23T08:37:45;23.25;;;3.90;;
12597;SDS011;6364;53.590;9.956;2024-03-23T08:40:10;23.23;;;4.55;;
12597;SDS011;6364;53.590;9.956;2024-03-23T08:42:36;30.67;;;5.00;;
12597;SDS011;6364;53.590;9.956;2024-03-23T08:45:01;26.58;;;4.82;;
12597;SDS011;6364;53.590;9.956;2024-03-23T08:47:27;26.00;;;4.47;;
12597;SDS011;6364;53.590;9.956;2024-03-23T08:49:52;28.38;;;3.60;;
12597;SDS011;6364;53.590;9.956;2024-03-23T08:52:18;24.60;;;3.78;;
12597;SDS011;6364;53.590;9.956;2024-03-23T08:54:43;23.00;;;3.85;;
12597;SDS011;6364;53.590;9.956;2024-03-23T08:57:08;19.42;;;3.88;;
12597;SDS011;6364;53.590;9.956;2024-03-23T08:59:34;19.92;;;3.95;;
12597;SDS011;6364;53.590;9.956;2024-03-23T09:01:59;19.98;;;3.38;;
12597;SDS011;6364;53.590;9.956;2024-03-23T09:04:25;17.55;;;3.28;;
12597;SDS011;6364;53.590;9.956;2024-03-23T09:06:50;20.65;;;3.63;;
12597;SDS011;6364;53.590;9.956;2024-03-23T09:09:16;18.73;;;3.75;;
12597;SDS011;6364;53.590;9.956;2024-03-23T09:11:41;23.38;;;4.40;;
12597;SDS011;6364;53.590;9.956;2024-03-23T09:14:07;17.75;;;4.00;;
12597;SDS011;6364;53.590;9.956;2024-03-23T09:16:33;23.48;;;4.25;;
12597;SDS011;6364;53.590;9.956;2024-03-23T09:18:59;22.73;;;3.97;;
12597;SDS011;6364;53.590;9.956;2024-03-23T09:21:24;21.08;;;3.63;;
12597;SDS011;6364;53.590;9.956;2024-03-23T09:23:50;12.77;;;2.85;;
12597;SDS011;6364;53.590;9.956;2024-03-23T09:26:15;17.70;;;3.45;;
12597;SDS011;6364;53.590;9.956;2024-03-23T09:28:41;24.75;;;3.80;;
12597;SDS011;6364;53.590;9.956;2024-03-23T09:31:07;20.88;;;3.40;;
12597;SDS011;6364;53.590;9.956;2024-03-23T09:33:33;20.50;;;3.45;;
12597;SDS011;6364;53.590;9.956;2024-03-23T09:36:03;20.52;;;3.67;;
12597;SDS011;6364;53.590;9.956;2024-03-23T09:38:29;18.35;;;3.40;;
12597;SDS011;6364;53.590;9.956;2024-03-23T09:40:54;21.25;;;4.00;;
12597;SDS011;6364;53.590;9.956;2024-03-23T09:43:20;14.93;;;3.22;;
12597;SDS011;6364;53.590;9.956;2024-03-23T09:45:45;13.57;;;2.85;;
12597;SDS011;6364;53.590;9.956;2024-03-23T09:48:11;13.15;;;2.80;;
12597;SDS011;6364;53.590;9.956;2024-03-23T09:50:40;14.85;;;2.97;;
12597;SDS011;6364;53.590;9.956;2024-03-23T09:53:10;13.68;;;3.28;;
12597;SDS011;6364;53.590;9.956;2024-03-23T09:55:39;12.77;;;3.20;;
12597;SDS011;6364;53.590;9.956;2024-03-23T09:58:06;13.65;;;3.78;;
12597;SDS011;6364;53.590;9.956;2024-03-23T10:00:31;19.65;;;3.72;;
12597;SDS011;6364;53.590;9.956;2024-03-23T10:02:58;15.55;;;2.83;;
12597;SDS011;6364;53.590;9.956;2024-03-23T10:05:27;15.63;;;3.60;;
12597;SDS011;6364;53.590;9.956;2024-03-23T10:07:53;16.35;;;2.42;;
12597;SDS011;6364;53.590;9.956;2024-03-23T10:10:18;12.93;;;2.88;;
12597;SDS011;6364;53.590;9.956;2024-03-23T10:12:47;16.20;;;2.85;;
12597;SDS011;6364;53.590;9.956;2024-03-23T10:15:25;15.90;;;3.53;;
12597;SDS011;6364;53.590;9.956;2024-03-23T10:17:50;11.68;;;2.40;;
12597;SDS011;6364;53.590;9.956;2024-03-23T10:20:20;10.60;;;2.90;;
12597;SDS011;6364;53.590;9.956;2024-03-23T10:22:49;18.65;;;3.50;;
12597;SDS011;6364;53.590;9.956;2024-03-23T10:25:16;13.55;;;3.35;;
12597;SDS011;6364;53.590;9.956;2024-03-23T10:27:41;12.98;;;2.47;;
12597;SDS011;6364;53.590;9.956;2024-03-23T10:30:09;15.02;;;3.15;;
12597;SDS011;6364;53.590;9.956;2024-03-23T10:32:35;14.18;;;2.83;;
12597;SDS011;6364;53.590;9.956;2024-03-23T10:35:14;17.50;;;3.13;;
12597;SDS011;6364;53.590;9.956;2024-03-23T10:37:40;10.93;;;2.67;;
12597;SDS011;6364;53.590;9.956;2024-03-23T10:40:06;16.77;;;2.78;;
12597;SDS011;6364;53.590;9.956;2024-03-23T10:42:32;11.77;;;2.90;;
12597;SDS011;6364;53.590;9.956;2024-03-23T10:44:58;18.58;;;2.97;;
12597;SDS011;6364;53.590;9.956;2024-03-23T10:47:25;11.85;;;2.15;;
12597;SDS011;6364;53.590;9.956;2024-03-23T10:49:51;12.45;;;2.72;;
12597;SDS011;6364;53.590;9.956;2024-03-23T10:52:16;12.65;;;2.35;;
12597;SDS011;6364;53.590;9.956;2024-03-23T10:54:41;12.88;;;2.50;;
12597;SDS011;6364;53.590;9.956;2024-03-23T10:57:09;21.13;;;3.70;;
12597;SDS011;6364;53.590;9.956;2024-03-23T10:59:38;11.88;;;2.50;;
12597;SDS011;6364;53.590;9.956;2024-03-23T11:02:04;12.63;;;2.88;;
12597;SDS011;6364;53.590;9.956;2024-03-23T11:04:33;10.63;;;2.45;;
12597;SDS011;6364;53.590;9.956;2024-03-23T11:07:00;12.18;;;2.65;;
12597;SDS011;6364;53.590;9.956;2024-03-23T11:09:39;9.55;;;1.90;;
12597;SDS011;6364;53.590;9.956;2024-03-23T11:15:10;8.93;;;2.10;;
12597;SDS011;6364;53.590;9.956;2024-03-23T11:17:37;7.30;;;2.22;;
12597;SDS011;6364;53.590;9.956;2024-03-23T11:20:02;9.50;;;2.55;;
12597;SDS011;6364;53.590;9.956;2024-03-23T11:22:45;7.38;;;2.00;;
12597;SDS011;6364;53.590;9.956;2024-03-23T11:27:51;12.18;;;2.22;;
12597;SDS011;6364;53.590;9.956;2024-03-23T11:30:18;8.05;;;1.83;;
12597;SDS011;6364;53.590;9.956;2024-03-23T11:32:51;5.60;;;1.95;;
12597;SDS011;6364;53.590;9.956;2024-03-23T11:40:28;7.57;;;1.70;;
12597;SDS011;6364;53.590;9.956;2024-03-23T11:42:58;8.82;;;2.30;;
12597;SDS011;6364;53.590;9.956;2024-03-23T11:45:25;8.43;;;2.20;;
12597;SDS011;6364;53.590;9.956;2024-03-23T11:48:07;7.80;;;2.20;;
12597;SDS011;6364;53.590;9.956;2024-03-23T11:50:56;7.85;;;2.08;;
12597;SDS011;6364;53.590;9.956;2024-03-23T11:53:25;13.70;;;2.30;;
12597;SDS011;6364;53.590;9.956;2024-03-23T11:55:55;11.88;;;2.58;;
12597;SDS011;6364;53.590;9.956;2024-03-23T11:58:24;13.30;;;2.63;;
12597;SDS011;6364;53.590;9.956;2024-03-23T12:03:25;6.53;;;0.80;;
12597;SDS011;6364;53.590;9.956;2024-03-23T12:05:53;5.60;;;1.15;;
12597;SDS011;6364;53.590;9.956;2024-03-23T12:10:53;2.88;;;1.00;;
12597;SDS011;6364;53.590;9.956;2024-03-23T12:13:29;4.87;;;1.10;;
12597;SDS011;6364;53.590;9.956;2024-03-23T12:15:54;5.65;;;1.20;;
12597;SDS011;6364;53.590;9.956;2024-03-23T12:18:23;4.57;;;1.08;;
12597;SDS011;6364;53.590;9.956;2024-03-23T12:20:49;4.28;;;1.20;;
12597;SDS011;6364;53.590;9.956;2024-03-23T12:23:15;4.72;;;1.40;;
12597;SDS011;6364;53.590;9.956;2024-03-23T12:25:40;5.05;;;1.40;;
12597;SDS011;6364;53.590;9.956;2024-03-23T12:28:06;3.60;;;1.20;;
12597;SDS011;6364;53.590;9.956;2024-03-23T12:30:35;1.98;;;0.88;;
12597;SDS011;6364;53.590;9.956;2024-03-23T12:33:04;7.40;;;1.40;;
12597;SDS011;6364;53.590;9.956;2024-03-23T12:35:29;6.93;;;1.58;;
12597;SDS011;6364;53.590;9.956;2024-03-23T12:37:55;8.48;;;1.60;;
12597;SDS011;6364;53.590;9.956;2024-03-23T12:40:20;2.35;;;0.90;;
12597;SDS011;6364;53.590;9.956;2024-03-23T12:42:46;3.00;;;0.55;;
12597;SDS011;6364;53.590;9.956;2024-03-23T12:45:11;1.92;;;0.60;;
12597;SDS011;6364;53.590;9.956;2024-03-23T12:47:36;2.03;;;0.70;;
12597;SDS011;6364;53.590;9.956;2024-03-23T12:50:02;3.63;;;0.80;;
12597;SDS011;6364;53.590;9.956;2024-03-23T12:52:28;1.67;;;0.60;;
12597;SDS011;6364;53.590;9.956;2024-03-23T12:54:55;1.75;;;0.88;;
12597;SDS011;6364;53.590;9.956;2024-03-23T12:57:21;3.42;;;1.10;;
12597;SDS011;6364;53.590;9.956;2024-03-23T12:59:53;3.45;;;1.00;;
12597;SDS011;6364;53.590;9.956;2024-03-23T13:02:19;5.15;;;1.10;;
12597;SDS011;6364;53.590;9.956;2024-03-23T13:04:52;7.78;;;1.00;;
12597;SDS011;6364;53.590;9.956;2024-03-23T13:07:19;1.23;;;0.52;;
12597;SDS011;6364;53.590;9.956;2024-03-23T13:09:45;3.67;;;0.88;;
12597;SDS011;6364;53.590;9.956;2024-03-23T13:12:11;3.50;;;1.00;;
12597;SDS011;6364;53.590;9.956;2024-03-23T13:14:39;2.53;;;0.90;;
12597;SDS011;6364;53.590;9.956;2024-03-23T13:17:05;4.97;;;1.23;;
12597;SDS011;6364;53.590;9.956;2024-03-23T13:19:31;7.38;;;2.33;;
12597;SDS011;6364;53.590;9.956;2024-03-23T13:21:57;5.70;;;1.50;;
12597;SDS011;6364;53.590;9.956;2024-03-23T13:24:24;6.57;;;2.00;;
12597;SDS011;6364;53.590;9.956;2024-03-23T13:26:50;7.78;;;1.92;;
12597;SDS011;6364;53.590;9.956;2024-03-23T13:29:16;10.25;;;2.00;;
12597;SDS011;6364;53.590;9.956;2024-03-23T13:31:42;9.57;;;1.65;;
12597;SDS011;6364;53.590;9.956;2024-03-23T13:34:07;6.38;;;1.88;;
12597;SDS011;6364;53.590;9.956;2024-03-23T13:36:33;8.40;;;2.17;;
12597;SDS011;6364;53.590;9.956;2024-03-23T13:38:58;7.63;;;1.70;;
12597;SDS011;6364;53.590;9.956;2024-03-23T13:41:24;5.57;;;1.85;;
12597;SDS011;6364;53.590;9.956;2024-03-23T13:43:49;6.95;;;1.88;;
12597;SDS011;6364;53.590;9.956;2024-03-23T13:46:15;6.45;;;1.50;;
12597;SDS011;6364;53.590;9.956;2024-03-23T13:48:40;3.92;;;1.88;;
12597;SDS011;6364;53.590;9.956;2024-03-23T13:51:07;8.85;;;1.83;;
12597;SDS011;6364;53.590;9.956;2024-03-23T13:53:32;3.78;;;1.45;;
12597;SDS011;6364;53.590;9.956;2024-03-23T13:55:58;5.22;;;1.23;;
12597;SDS011;6364;53.590;9.956;2024-03-23T13:58:23;6.03;;;1.98;;
12597;SDS011;6364;53.590;9.956;2024-03-23T14:00:50;7.05;;;1.70;;
12597;SDS011;6364;53.590;9.956;2024-03-23T14:03:16;3.70;;;1.20;;
12597;SDS011;6364;53.590;9.956;2024-03-23T14:05:42;5.32;;;1.30;;
12597;SDS011;6364;53.590;9.956;2024-03-23T14:08:08;3.33;;;1.10;;
12597;SDS011;6364;53.590;9.956;2024-03-23T14:10:33;2.42;;;0.82;;
12597;SDS011;6364;53.590;9.956;2024-03-23T14:13:00;4.40;;;1.20;;
12597;SDS011;6364;53.590;9.956;2024-03-23T14:15:26;3.35;;;0.90;;
12597;SDS011;6364;53.590;9.956;2024-03-23T14:17:52;7.25;;;1.20;;
12597;SDS011;6364;53.590;9.956;2024-03-23T14:20:17;1.27;;;0.70;;
12597;SDS011;6364;53.590;9.956;2024-03-23T14:22:42;4.13;;;1.02;;
12597;SDS011;6364;53.590;9.956;2024-03-23T14:25:08;5.60;;;1.30;;
12597;SDS011;6364;53.590;9.956;2024-03-23T14:27:34;7.70;;;1.60;;
12597;SDS011;6364;53.590;9.956;2024-03-23T14:30:02;6.55;;;1.20;;
12597;SDS011;6364;53.590;9.956;2024-03-23T14:32:29;3.70;;;1.27;;
12597;SDS011;6364;53.590;9.956;2024-03-23T14:34:56;7.63;;;1.58;;
12597;SDS011;6364;53.590;9.956;2024-03-23T14:37:21;6.93;;;1.40;;
12597;SDS011;6364;53.590;9.956;2024-03-23T14:39:47;3.25;;;1.10;;
12597;SDS011;6364;53.590;9.956;2024-03-23T14:42:12;5.53;;;1.40;;
12597;SDS011;6364;53.590;9.956;2024-03-23T14:44:38;7.05;;;1.50;;
12597;SDS011;6364;53.590;9.956;2024-03-23T14:47:03;4.35;;;1.27;;
12597;SDS011;6364;53.590;9.956;2024-03-23T14:49:29;3.72;;;1.17;;
12597;SDS011;6364;53.590;9.956;2024-03-23T14:51:54;6.18;;;1.40;;
12597;SDS011;6364;53.590;9.956;2024-03-23T14:54:19;8.82;;;1.63;;
12597;SDS011;6364;53.590;9.956;2024-03-23T14:56:45;6.10;;;1.40;;
12597;SDS011;6364;53.590;9.956;2024-03-23T14:59:12;4.47;;;1.25;;
12597;SDS011;6364;53.590;9.956;2024-03-23T15:01:38;5.63;;;1.20;;
12597;SDS011;6364;53.590;9.956;2024-03-23T15:04:03;6.82;;;1.73;;
12597;SDS011;6364;53.590;9.956;2024-03-23T15:06:29;4.20;;;0.77;;
12597;SDS011;6364;53.590;9.956;2024-03-23T15:08:54;3.45;;;0.85;;
12597;SDS011;6364;53.590;9.956;2024-03-23T15:11:20;1.85;;;0.60;;
12597;SDS011;6364;53.590;9.956;2024-03-23T15:13:45;4.55;;;1.20;;
12597;SDS011;6364;53.590;9.956;2024-03-23T15:16:16;4.45;;;1.00;;
12597;SDS011;6364;53.590;9.956;2024-03-23T15:18:42;1.98;;;1.10;;
12597;SDS011;6364;53.590;9.956;2024-03-23T15:21:07;3.58;;;0.93;;
12597;SDS011;6364;53.590;9.956;2024-03-23T15:23:36;4.60;;;1.27;;
12597;SDS011;6364;53.590;9.956;2024-03-23T15:26:01;6.45;;;1.40;;
12597;SDS011;6364;53.590;9.956;2024-03-23T15:28:27;2.45;;;1.20;;
12597;SDS011;6364;53.590;9.956;2024-03-23T15:31:27;4.25;;;1.70;;
12597;SDS011;6364;53.590;9.956;2024-03-23T15:33:52;3.53;;;1.30;;
12597;SDS011;6364;53.590;9.956;2024-03-23T15:36:17;7.95;;;2.10;;
12597;SDS011;6364;53.590;9.956;2024-03-23T15:38:43;9.68;;;1.90;;
12597;SDS011;6364;53.590;9.956;2024-03-23T15:41:10;4.88;;;1.92;;
12597;SDS011;6364;53.590;9.956;2024-03-23T15:43:35;7.47;;;1.58;;
12597;SDS011;6364;53.590;9.956;2024-03-23T15:46:01;8.30;;;2.08;;
12597;SDS011;6364;53.590;9.956;2024-03-23T15:48:27;9.63;;;1.48;;
12597;SDS011;6364;53.590;9.956;2024-03-23T15:50:54;4.75;;;1.65;;
12597;SDS011;6364;53.590;9.956;2024-03-23T15:53:20;7.68;;;1.42;;
12597;SDS011;6364;53.590;9.956;2024-03-23T15:55:56;7.93;;;1.58;;
12597;SDS011;6364;53.590;9.956;2024-03-23T15:58:22;4.72;;;1.65;;